Time;durP1;ratioP1;P1;durP2;ratioP2;P2;SDS_P1;SDS_P2;PMS_P1;PMS_P2;Temp;Humidity;BMP_temperature;BMP_pressure;BME280_temperature;BME280_humidity;BME280_pressure;Samples;Min_cycle;Max_cycle;Signal;HPM_P1;HPM_P2
2021/12/02 00:01:31;;;;;;;4.95;2.90;;;-5.40;75.70;-6.10;96606.00;;;;4962917;28;87344;-63
2021/12/02 00:03:58;;;;;;;5.03;2.92;;;-5.40;76.00;-6.10;96605.00;;;;4962733;28;87322;-63
2021/12/02 00:06:25;;;;;;;4.75;3.30;;;-5.40;76.30;-6.10;96604.00;;;;4963112;28;87542;-63
2021/12/02 00:08:52;;;;;;;4.30;3.20;;;-5.40;76.70;-6.10;96615.00;;;;4964387;28;87503;-63
2021/12/02 00:11:21;;;;;;;5.20;2.90;;;-5.40;76.80;-6.10;96619.00;;;;4982386;28;87351;-62
2021/12/02 00:16:49;;;;;;;4.95;3.35;;;-5.40;77.00;-6.10;96612.00;;;;4970633;28;89136;-63
2021/12/02 00:22:03;;;;;;;4.72;2.85;;;-5.40;77.50;-6.20;96636.00;;;;4962400;28;87237;-63
2021/12/02 00:24:40;;;;;;;7.20;4.15;;;-5.40;77.50;-6.10;96634.00;;;;4962021;28;87704;-63
2021/12/02 00:27:09;;;;;;;5.05;3.38;;;-5.40;77.80;-6.10;96640.00;;;;4962297;28;87212;-63
2021/12/02 00:29:38;;;;;;;5.03;3.67;;;-5.50;77.90;-6.20;96635.00;;;;4961509;28;87272;-64
2021/12/02 00:32:08;;;;;;;6.30;3.65;;;-5.50;78.40;-6.20;96640.00;;;;4962586;28;86269;-63
2021/12/02 00:34:42;;;;;;;4.80;3.40;;;-5.50;78.50;-6.20;96647.00;;;;4960914;28;89804;-55
2021/12/02 00:37:09;;;;;;;4.55;3.53;;;-5.50;79.40;-6.20;96639.00;;;;4961648;28;87409;-63
2021/12/02 00:39:35;;;;;;;4.85;3.42;;;-5.50;78.80;-6.20;96658.00;;;;4961716;28;88214;-59
2021/12/02 00:42:01;;;;;;;4.40;3.20;;;-5.50;78.80;-6.20;96649.00;;;;4961215;28;87315;-61
2021/12/02 00:44:31;;;;;;;4.60;3.03;;;-5.50;78.80;-6.20;96662.00;;;;4977492;28;89784;-63
2021/12/02 00:47:01;;;;;;;4.35;3.15;;;-5.50;78.80;-6.20;96662.00;;;;4961005;28;87626;-63
2021/12/02 00:49:28;;;;;;;4.25;2.85;;;-5.50;79.20;-6.20;96671.00;;;;4961120;28;87271;-63
2021/12/02 00:51:59;;;;;;;4.82;3.28;;;-5.50;79.20;-6.20;96672.00;;;;4962188;28;87383;-63
2021/12/02 00:54:27;;;;;;;5.68;3.35;;;-5.50;79.30;-6.20;96684.00;;;;4962109;28;87555;-63
2021/12/02 00:56:54;;;;;;;4.68;3.15;;;-5.50;79.60;-6.20;96675.00;;;;4976410;28;87176;-63
2021/12/02 00:59:22;;;;;;;4.22;3.20;;;-5.50;79.50;-6.20;96691.00;;;;4981472;28;87257;-63
2021/12/02 01:01:51;;;;;;;4.85;3.05;;;-5.40;79.70;-6.20;96692.00;;;;4981599;28;87332;-55
2021/12/02 01:04:24;;;;;;;5.03;3.10;;;-5.50;79.40;-6.10;96705.00;;;;4980792;28;88480;-61
2021/12/02 01:06:51;;;;;;;5.35;3.35;;;-5.40;79.30;-6.10;96701.00;;;;4980509;28;88674;-61
2021/12/02 01:09:18;;;;;;;4.18;2.83;;;-5.40;79.60;-6.10;96708.00;;;;4980772;28;86956;-61
2021/12/02 01:11:44;;;;;;;6.40;3.65;;;-5.40;79.30;-6.10;96689.00;;;;4981511;28;87217;-61
2021/12/02 01:14:11;;;;;;;4.47;3.25;;;-5.40;79.50;-6.10;96701.00;;;;4979956;28;88984;-61
2021/12/02 01:16:38;;;;;;;4.70;2.88;;;-5.40;79.00;-6.10;96700.00;;;;4990645;28;88410;-60
2021/12/02 01:19:06;;;;;;;3.72;2.95;;;-5.40;79.20;-6.10;96695.00;;;;4981319;28;87557;-61
2021/12/02 01:21:37;;;;;;;3.70;2.47;;;-5.40;79.30;-6.10;96718.00;;;;4980737;28;86565;-61
2021/12/02 01:24:05;;;;;;;5.13;2.70;;;-5.40;78.60;-6.10;96714.00;;;;4969930;28;88488;-61
2021/12/02 01:26:34;;;;;;;3.75;2.85;;;-5.40;77.30;-6.10;96706.00;;;;4961580;28;87283;-63
2021/12/02 01:29:02;;;;;;;5.80;2.67;;;-5.30;77.60;-6.00;96715.00;;;;4976002;28;87979;-56
2021/12/02 01:31:35;;;;;;;2.78;2.22;;;-5.30;77.60;-6.00;96717.00;;;;4961514;28;87075;-60
2021/12/02 01:34:08;;;;;;;2.92;2.25;;;-5.30;76.90;-6.00;96725.00;;;;4976869;28;89297;-56
2021/12/02 01:36:41;;;;;;;3.22;2.33;;;-5.30;76.50;-6.00;96718.00;;;;4961217;28;88392;-57
2021/12/02 01:39:09;;;;;;;3.92;2.33;;;-5.30;76.50;-6.00;96707.00;;;;4961548;28;87319;-61
2021/12/02 01:41:45;;;;;;;3.88;2.20;;;-5.20;76.60;-6.00;96717.00;;;;4960484;28;87098;-58
2021/12/02 01:44:16;;;;;;;3.42;2.00;;;-5.30;75.90;-6.00;96718.00;;;;4961302;28;87697;-59
2021/12/02 01:46:42;;;;;;;3.88;2.03;;;-5.20;75.90;-6.00;96729.00;;;;4961602;28;87236;-59
2021/12/02 01:49:11;;;;;;;2.15;1.90;;;-5.20;76.30;-6.00;96707.00;;;;4961114;28;87106;-58
2021/12/02 01:51:47;;;;;;;2.17;1.67;;;-5.30;75.60;-6.00;96724.00;;;;4980605;28;87335;-59
2021/12/02 01:54:23;;;;;;;2.38;1.63;;;-5.20;75.50;-6.00;96729.00;;;;4995824;28;89050;-59
2021/12/02 01:57:04;;;;;;;2.35;1.58;;;-5.30;74.80;-6.00;96724.00;;;;4966858;28;88296;-55
2021/12/02 01:59:37;;;;;;;1.67;1.30;;;-5.30;74.90;-6.00;96734.00;;;;4961216;28;87643;-57
2021/12/02 02:02:10;;;;;;;1.35;1.20;;;-5.20;74.60;-6.00;96731.00;;;;4959853;28;86950;-64
2021/12/02 02:04:37;;;;;;;2.45;1.20;;;-5.30;74.40;-6.00;96736.00;;;;4960987;28;88498;-58
2021/12/02 02:07:13;;;;;;;2.35;1.20;;;-5.30;74.10;-6.00;96752.00;;;;4959795;28;87347;-54
2021/12/02 02:09:40;;;;;;;2.13;1.67;;;-5.30;74.00;-6.00;96756.00;;;;4961178;28;87269;-54
2021/12/02 02:12:10;;;;;;;2.13;1.30;;;-5.30;74.40;-6.00;96757.00;;;;4961145;28;86642;-55
2021/12/02 02:14:38;;;;;;;1.48;1.30;;;-5.30;74.70;-6.00;96758.00;;;;4963857;28;89161;-58
2021/12/02 02:17:22;;;;;;;2.15;1.33;;;-5.30;74.10;-6.00;96757.00;;;;4975820;28;89471;-56
2021/12/02 02:19:49;;;;;;;2.05;1.20;;;-5.30;74.10;-6.00;96762.00;;;;4942757;28;88588;-57
2021/12/02 02:22:20;;;;;;;2.03;1.25;;;-5.30;73.90;-6.00;96750.00;;;;4959958;28;87535;-57
2021/12/02 02:24:46;;;;;;;2.58;1.40;;;-5.30;73.80;-6.00;96756.00;;;;4960307;28;88591;-52
2021/12/02 02:27:12;;;;;;;2.10;1.50;;;-5.30;74.10;-6.00;96758.00;;;;4960608;28;87510;-61
2021/12/02 02:29:39;;;;;;;3.03;1.50;;;-5.30;73.90;-6.00;96753.00;;;;4960626;28;87160;-62
2021/12/02 02:32:05;;;;;;;1.55;1.17;;;-5.30;74.00;-6.00;96754.00;;;;4960658;28;87005;-61
2021/12/02 02:34:32;;;;;;;2.35;1.50;;;-5.30;73.80;-6.00;96761.00;;;;4942663;28;88870;-61
2021/12/02 02:37:02;;;;;;;1.70;1.40;;;-5.30;73.90;-6.00;96758.00;;;;4960748;28;88360;-59
2021/12/02 02:39:30;;;;;;;3.88;1.70;;;-5.20;74.30;-6.00;96761.00;;;;4960310;28;87108;-62
2021/12/02 02:41:58;;;;;;;2.33;1.50;;;-5.20;74.30;-6.00;96775.00;;;;4960599;28;87517;-64
2021/12/02 02:44:28;;;;;;;2.42;1.60;;;-5.30;74.40;-6.00;96762.00;;;;4959500;28;89708;-63
2021/12/02 02:46:55;;;;;;;1.77;1.40;;;-5.20;74.10;-6.00;96762.00;;;;4959964;28;89330;-63
2021/12/02 02:49:22;;;;;;;2.13;1.65;;;-5.30;73.80;-6.00;96757.00;;;;4959273;28;87331;-63
2021/12/02 02:51:49;;;;;;;1.77;1.42;;;-5.30;73.70;-6.00;96762.00;;;;4959239;28;87001;-63
2021/12/02 02:54:17;;;;;;;1.13;1.00;;;-5.30;72.30;-6.00;96764.00;;;;4960324;28;87742;-63
2021/12/02 02:57:07;;;;;;;2.50;1.20;;;-5.30;72.20;-6.00;96770.00;;;;4968303;28;87399;-63
2021/12/02 03:02:14;;;;;;;1.90;1.30;;;-5.20;72.40;-6.00;96782.00;;;;4959842;28;86283;-63
2021/12/02 03:07:21;;;;;;;1.40;1.15;;;-5.30;72.50;-5.90;96768.00;;;;4958823;28;87400;-63
2021/12/02 03:12:42;;;;;;;1.75;1.30;;;-5.20;72.30;-6.00;96793.00;;;;4960244;28;87111;-61
2021/12/02 03:17:36;;;;;;;2.15;1.42;;;-5.20;72.60;-5.90;96801.00;;;;4982741;28;88687;-62
2021/12/02 03:20:04;;;;;;;3.17;2.03;;;-5.20;73.40;-5.90;96802.00;;;;4983240;28;87424;-61
2021/12/02 03:22:32;;;;;;;2.20;1.55;;;-5.20;73.90;-5.90;96807.00;;;;4998383;28;87039;-60
2021/12/02 03:24:58;;;;;;;2.22;1.50;;;-5.20;74.20;-5.90;96808.00;;;;4964388;28;88681;-61
2021/12/02 03:27:24;;;;;;;1.98;1.40;;;-5.20;74.40;-5.90;96805.00;;;;4962145;28;87291;-61
2021/12/02 03:29:50;;;;;;;1.83;1.45;;;-5.20;74.10;-5.90;96804.00;;;;4962821;28;87146;-61
2021/12/02 03:32:16;;;;;;;2.00;1.80;;;-5.20;74.10;-5.90;96803.00;;;;4961957;28;87531;-63
2021/12/02 03:34:43;;;;;;;2.60;1.63;;;-5.20;74.50;-5.90;96818.00;;;;4962632;28;89589;-57
2021/12/02 03:37:09;;;;;;;1.60;1.40;;;-5.20;74.90;-5.90;96811.00;;;;4962916;28;88250;-58
2021/12/02 03:39:36;;;;;;;2.70;1.90;;;-5.20;74.10;-5.90;96802.00;;;;4963239;28;86968;-63
2021/12/02 03:42:05;;;;;;;2.15;1.48;;;-5.20;74.70;-5.90;96809.00;;;;4978330;28;87714;-63
2021/12/02 03:44:31;;;;;;;1.92;1.58;;;-5.20;75.00;-5.90;96815.00;;;;4962544;28;87572;-63
2021/12/02 03:46:58;;;;;;;2.47;1.63;;;-5.20;75.10;-5.90;96824.00;;;;4962539;28;87567;-63
2021/12/02 03:49:24;;;;;;;4.10;1.70;;;-5.20;75.70;-6.00;96813.00;;;;4977670;28;87392;-63
2021/12/02 03:51:50;;;;;;;1.90;1.52;;;-5.30;75.90;-6.00;96830.00;;;;4962967;28;86679;-62
2021/12/02 03:54:16;;;;;;;2.00;1.50;;;-5.30;76.30;-6.00;96829.00;;;;4962364;28;87570;-62
2021/12/02 03:56:43;;;;;;;2.90;1.80;;;-5.30;76.50;-6.00;96823.00;;;;4975189;28;87254;-61
2021/12/02 03:59:09;;;;;;;3.13;1.83;;;-5.30;77.20;-6.00;96820.00;;;;4997017;28;88328;-61
2021/12/02 04:01:35;;;;;;;2.00;1.67;;;-5.30;77.60;-6.10;96833.00;;;;4997947;28;87102;-62
2021/12/02 04:04:01;;;;;;;4.53;2.22;;;-5.40;77.60;-6.10;96839.00;;;;4982115;28;87505;-62
2021/12/02 04:06:28;;;;;;;3.95;2.20;;;-5.40;77.50;-6.10;96844.00;;;;4982180;28;88005;-61
2021/12/02 04:16:21;;;;;;;4.20;2.20;;;-5.40;78.50;-6.10;96863.00;;;;4979854;28;88499;-60
2021/12/02 04:18:49;;;;;;;2.60;1.73;;;-5.40;78.40;-6.10;96862.00;;;;4980591;28;87079;-61
2021/12/02 04:21:15;;;;;;;3.00;1.90;;;-5.50;77.90;-6.20;96856.00;;;;4980653;28;86980;-61
2021/12/02 04:23:41;;;;;;;3.95;2.00;;;-5.40;78.30;-6.20;96861.00;;;;4971865;28;89303;-62
2021/12/02 04:26:08;;;;;;;2.60;2.00;;;-5.50;78.30;-6.20;96854.00;;;;4960378;28;90193;-55
2021/12/02 04:28:34;;;;;;;3.05;2.03;;;-5.50;78.40;-6.20;96852.00;;;;4961018;28;86986;-57
2021/12/02 04:31:00;;;;;;;3.28;2.15;;;-5.50;78.30;-6.30;96852.00;;;;4960965;28;87065;-56
2021/12/02 04:33:28;;;;;;;4.60;2.20;;;-5.60;78.10;-6.30;96864.00;;;;4960957;28;87524;-58
2021/12/02 04:35:54;;;;;;;4.38;2.20;;;-5.60;78.50;-6.30;96852.00;;;;4959502;28;87344;-60
2021/12/02 04:38:20;;;;;;;4.30;2.20;;;-5.60;78.30;-6.40;96859.00;;;;4960639;28;87465;-55
2021/12/02 04:40:46;;;;;;;4.63;2.10;;;-5.70;78.10;-6.50;96859.00;;;;4960784;28;86269;-53
2021/12/02 04:43:13;;;;;;;4.10;1.95;;;-5.70;78.20;-6.50;96871.00;;;;4960371;28;88738;-57
2021/12/02 04:45:39;;;;;;;5.47;2.47;;;-5.80;78.20;-6.60;96865.00;;;;4960156;28;87347;-58
2021/12/02 04:48:06;;;;;;;3.33;2.40;;;-5.80;78.30;-6.70;96878.00;;;;4960045;28;88009;-58
2021/12/02 04:50:33;;;;;;;3.08;2.00;;;-5.90;78.40;-6.70;96868.00;;;;4969685;28;87432;-54
2021/12/02 04:52:59;;;;;;;3.95;2.40;;;-6.00;78.40;-6.80;96887.00;;;;4979735;28;88183;-55
2021/12/02 04:55:26;;;;;;;4.43;2.20;;;-6.00;78.60;-6.90;96865.00;;;;4977488;28;87051;-56
2021/12/02 04:57:53;;;;;;;2.90;2.30;;;-6.10;78.80;-6.90;96887.00;;;;4960756;28;87024;-57
2021/12/02 05:00:19;;;;;;;3.13;2.08;;;-6.20;78.50;-7.00;96889.00;;;;4960035;28;87792;-58
2021/12/02 05:02:46;;;;;;;3.03;2.05;;;-6.20;78.90;-7.00;96878.00;;;;4959991;28;87343;-59
2021/12/02 05:05:12;;;;;;;3.22;2.25;;;-6.20;79.00;-7.10;96886.00;;;;4960357;28;87093;-56
2021/12/02 05:07:38;;;;;;;5.32;3.50;;;-6.20;79.30;-7.10;96890.00;;;;4907151;28;1506777;-56
2021/12/02 05:10:06;;;;;;;4.22;2.45;;;-6.20;79.60;-7.00;96897.00;;;;4961043;28;87401;-56
2021/12/02 05:12:32;;;;;;;3.65;2.15;;;-6.20;79.40;-7.00;96897.00;;;;4960588;28;88728;-57
2021/12/02 05:15:00;;;;;;;4.07;2.83;;;-6.20;79.00;-7.00;96901.00;;;;4967408;28;88141;-55
2021/12/02 05:17:26;;;;;;;3.42;2.55;;;-6.20;79.00;-7.00;96898.00;;;;4961222;28;87368;-55
2021/12/02 05:19:52;;;;;;;2.25;1.80;;;-6.20;78.90;-6.90;96903.00;;;;4960669;28;87080;-58
2021/12/02 05:22:19;;;;;;;3.85;2.30;;;-6.20;78.60;-6.90;96896.00;;;;4960612;28;87501;-56
2021/12/02 05:24:45;;;;;;;3.85;2.53;;;-6.10;78.60;-6.90;96899.00;;;;4977544;28;87315;-55
2021/12/02 05:27:12;;;;;;;3.28;2.30;;;-6.10;78.50;-6.90;96901.00;;;;4996135;28;87545;-55
2021/12/02 05:29:39;;;;;;;2.58;2.30;;;-6.10;78.30;-6.90;96915.00;;;;4981058;28;86376;-52
2021/12/02 05:32:05;;;;;;;3.97;1.98;;;-6.10;78.00;-6.80;96915.00;;;;4980303;28;87373;-55
2021/12/02 05:34:34;;;;;;;4.97;2.70;;;-6.10;78.20;-6.80;96915.00;;;;4980616;28;87976;-58
2021/12/02 05:37:00;;;;;;;3.83;2.90;;;-6.10;77.70;-6.80;96916.00;;;;4978241;28;88220;-55
2021/12/02 05:39:26;;;;;;;3.00;2.20;;;-6.10;78.10;-6.80;96915.00;;;;4980226;28;87008;-51
2021/12/02 05:41:55;;;;;;;5.25;2.67;;;-6.10;77.60;-6.80;96924.00;;;;4980029;28;87506;-59
2021/12/02 05:44:23;;;;;;;3.28;2.33;;;-6.10;77.10;-6.80;96922.00;;;;4980236;28;87331;-53
2021/12/02 05:46:50;;;;;;;2.70;1.95;;;-6.10;77.10;-6.80;96926.00;;;;4979158;28;87448;-52
2021/12/02 05:49:17;;;;;;;3.90;2.17;;;-6.00;77.40;-6.80;96949.00;;;;4980003;28;87047;-53
2021/12/02 05:51:45;;;;;;;3.13;2.10;;;-6.00;76.90;-6.80;96939.00;;;;4960829;28;87953;-54
2021/12/02 05:54:12;;;;;;;3.00;2.00;;;-6.00;76.90;-6.80;96949.00;;;;4961151;28;87460;-57
2021/12/02 05:56:40;;;;;;;4.43;2.88;;;-6.00;76.90;-6.70;96936.00;;;;4971606;28;86977;-55
2021/12/02 05:59:07;;;;;;;3.45;2.10;;;-6.00;76.80;-6.70;96937.00;;;;4978863;28;87306;-55
2021/12/02 06:01:34;;;;;;;2.75;1.98;;;-6.00;76.40;-6.70;96943.00;;;;4979507;28;89846;-54
2021/12/02 06:04:01;;;;;;;3.17;2.13;;;-6.00;76.40;-6.70;96937.00;;;;4980111;28;88089;-62
2021/12/02 06:06:27;;;;;;;3.15;2.30;;;-5.90;77.00;-6.70;96946.00;;;;4980113;28;87072;-62
2021/12/02 06:08:53;;;;;;;5.32;2.25;;;-5.90;76.30;-6.60;96942.00;;;;4977141;28;87016;-62
2021/12/02 06:11:20;;;;;;;3.35;2.38;;;-5.90;76.00;-6.60;96941.00;;;;4960624;28;87701;-63
2021/12/02 06:13:46;;;;;;;3.25;1.98;;;-5.90;76.10;-6.60;96943.00;;;;4976092;28;87396;-61
2021/12/02 06:16:15;;;;;;;3.30;2.30;;;-5.80;76.00;-6.50;96950.00;;;;4967879;28;87256;-58
2021/12/02 06:18:41;;;;;;;4.40;2.13;;;-5.80;75.40;-6.50;96962.00;;;;4960250;28;86687;-56
2021/12/02 06:21:07;;;;;;;2.35;1.90;;;-5.70;75.70;-6.50;96958.00;;;;4974990;28;88739;-58
2021/12/02 06:23:35;;;;;;;3.25;2.28;;;-5.70;75.40;-6.40;96971.00;;;;4967031;28;87363;-62
2021/12/02 06:26:01;;;;;;;3.95;2.22;;;-5.70;75.90;-6.40;96982.00;;;;4979698;28;88306;-59
2021/12/02 06:28:27;;;;;;;4.20;2.17;;;-5.60;76.00;-6.30;96974.00;;;;4979864;28;87491;-59
2021/12/02 06:30:53;;;;;;;3.00;1.80;;;-5.60;75.50;-6.30;96975.00;;;;4979890;28;88878;-58
2021/12/02 06:33:19;;;;;;;2.55;1.83;;;-5.60;75.10;-6.20;96973.00;;;;4979842;28;87218;-61
2021/12/02 06:35:45;;;;;;;2.55;2.00;;;-5.50;75.10;-6.20;96985.00;;;;4980007;28;87252;-60
2021/12/02 06:38:12;;;;;;;3.03;2.00;;;-5.50;74.90;-6.20;96979.00;;;;4979304;28;87319;-62
2021/12/02 06:40:39;;;;;;;3.13;1.80;;;-5.40;75.10;-6.10;96978.00;;;;4979949;28;87591;-55
2021/12/02 06:43:05;;;;;;;2.40;1.80;;;-5.40;74.90;-6.10;96975.00;;;;4995362;28;87175;-56
2021/12/02 06:45:32;;;;;;;3.05;1.90;;;-5.40;74.70;-6.00;96986.00;;;;4978694;28;87099;-56
2021/12/02 06:47:59;;;;;;;2.28;1.95;;;-5.30;74.70;-6.00;96979.00;;;;4979026;28;87355;-58
2021/12/02 06:50:28;;;;;;;2.63;1.88;;;-5.30;74.20;-6.00;96991.00;;;;4968741;28;90085;-63
2021/12/02 06:52:55;;;;;;;2.90;2.15;;;-5.20;74.50;-5.90;96983.00;;;;4959804;28;88095;-64
2021/12/02 06:55:22;;;;;;;5.68;2.45;;;-5.20;73.80;-5.90;96982.00;;;;4961124;28;87333;-65
2021/12/02 06:57:49;;;;;;;4.00;2.53;;;-5.20;74.20;-5.80;96978.00;;;;4979645;28;86997;-63
2021/12/02 07:00:18;;;;;;;4.63;2.22;;;-5.10;74.40;-5.80;96973.00;;;;4978469;28;88787;-65
2021/12/02 07:02:44;;;;;;;3.33;2.00;;;-5.10;73.50;-5.70;96969.00;;;;4979433;28;87421;-59
2021/12/02 07:05:16;;;;;;;2.92;2.08;;;-5.00;72.70;-5.60;96974.00;;;;4979521;28;87038;-64
2021/12/02 07:07:43;;;;;;;3.63;2.05;;;-4.90;72.60;-5.50;96976.00;;;;4979882;28;86152;-59
2021/12/02 07:10:20;;;;;;;3.47;2.20;;;-4.90;72.60;-5.50;96977.00;;;;4966129;28;89212;-65
2021/12/02 07:12:49;;;;;;;4.55;2.30;;;-4.80;72.30;-5.40;96970.00;;;;4960071;28;87183;-52
2021/12/02 07:15:19;;;;;;;3.33;2.30;;;-4.70;71.80;-5.30;96983.00;;;;4961416;28;88414;-51
2021/12/02 07:17:50;;;;;;;4.03;2.47;;;-4.70;71.80;-5.20;96981.00;;;;4994522;28;87060;-62
2021/12/02 07:20:17;;;;;;;3.55;2.05;;;-4.60;72.10;-5.20;96993.00;;;;4978891;28;88589;-62
2021/12/02 07:22:43;;;;;;;3.03;2.30;;;-4.60;71.50;-5.20;97001.00;;;;4978921;28;87994;-62
2021/12/02 07:25:10;;;;;;;3.10;2.35;;;-4.50;71.70;-5.20;96985.00;;;;4959050;28;87499;-61
2021/12/02 07:27:36;;;;;;;5.38;2.50;;;-4.50;71.50;-5.10;96990.00;;;;4959599;28;87355;-63
2021/12/02 07:30:05;;;;;;;5.15;2.70;;;-4.50;71.60;-5.10;96988.00;;;;4959274;28;88139;-63
2021/12/02 07:32:39;;;;;;;4.70;2.97;;;-4.40;71.50;-5.00;96980.00;;;;4958937;28;87274;-64
2021/12/02 07:35:15;;;;;;;5.80;3.30;;;-4.40;71.40;-4.90;96975.00;;;;4960407;28;87278;-64
2021/12/02 07:37:48;;;;;;;3.53;2.72;;;-4.30;71.60;-4.90;96984.00;;;;4959266;28;87480;-63
2021/12/02 07:40:16;;;;;;;3.88;2.58;;;-4.20;71.50;-4.80;96992.00;;;;4958107;28;89676;-64
2021/12/02 07:42:45;;;;;;;6.55;2.75;;;-4.20;70.60;-4.70;96988.00;;;;4958868;28;88436;-63
2021/12/02 07:45:12;;;;;;;4.45;2.67;;;-4.10;69.70;-4.70;96991.00;;;;4958951;28;87093;-63
2021/12/02 07:47:40;;;;;;;8.45;3.22;;;-4.10;69.80;-4.70;96982.00;;;;4959482;28;87235;-64
2021/12/02 07:50:10;;;;;;;5.55;2.83;;;-4.10;69.70;-4.60;97000.00;;;;4965834;28;88655;-62
2021/12/02 07:52:45;;;;;;;5.35;3.40;;;-4.00;69.80;-4.60;96990.00;;;;4979433;28;87316;-62
2021/12/02 07:55:14;;;;;;;5.43;3.03;;;-4.00;70.00;-4.60;96993.00;;;;4977603;28;87411;-52
2021/12/02 07:57:43;;;;;;;5.78;3.58;;;-4.00;69.70;-4.70;96997.00;;;;4959887;28;86149;-61
2021/12/02 08:00:12;;;;;;;6.88;3.22;;;-4.10;69.70;-4.70;96991.00;;;;4960615;28;87800;-62
2021/12/02 08:02:43;;;;;;;6.85;3.40;;;-4.10;70.10;-4.70;96998.00;;;;4961503;28;87429;-61
2021/12/02 08:05:10;;;;;;;6.90;5.07;;;-4.10;70.10;-4.70;96997.00;;;;4962130;28;88204;-63
2021/12/02 08:07:39;;;;;;;4.25;2.53;;;-4.10;70.20;-4.70;96997.00;;;;4962236;28;87492;-62
2021/12/02 08:10:08;;;;;;;4.28;2.72;;;-4.10;70.00;-4.70;96983.00;;;;4962358;28;87706;-61
2021/12/02 08:12:37;;;;;;;7.82;2.80;;;-4.10;69.70;-4.70;96988.00;;;;4961063;28;88198;-62
2021/12/02 08:15:06;;;;;;;5.72;3.05;;;-4.10;70.50;-4.70;96979.00;;;;4969265;28;87013;-61
2021/12/02 08:17:33;;;;;;;6.03;2.78;;;-4.10;70.30;-4.70;96972.00;;;;4962291;28;87237;-62
2021/12/02 08:19:59;;;;;;;6.25;2.60;;;-4.10;70.60;-4.60;96971.00;;;;4961944;28;87922;-62
2021/12/02 08:22:25;;;;;;;5.82;2.47;;;-4.00;70.90;-4.60;96973.00;;;;4962469;28;87275;-63
2021/12/02 08:24:52;;;;;;;5.38;2.63;;;-4.00;70.70;-4.60;96967.00;;;;4978968;28;87522;-61
2021/12/02 08:27:18;;;;;;;6.40;2.97;;;-4.00;70.10;-4.50;96970.00;;;;4981500;28;87254;-61
2021/12/02 08:29:44;;;;;;;5.55;2.80;;;-3.90;69.70;-4.50;96967.00;;;;4980759;28;87988;-61
2021/12/02 08:32:11;;;;;;;6.25;2.55;;;-3.90;69.70;-4.50;96958.00;;;;4996409;28;88475;-61
2021/12/02 08:34:38;;;;;;;6.43;3.10;;;-3.90;70.10;-4.50;96971.00;;;;4981828;28;87099;-61
2021/12/02 08:37:05;;;;;;;7.30;2.20;;;-3.90;70.20;-4.50;96967.00;;;;4981351;28;87123;-61
2021/12/02 08:39:32;;;;;;;5.15;2.70;;;-3.90;70.00;-4.40;96981.00;;;;4981209;28;87630;-58
2021/12/02 08:41:58;;;;;;;6.22;2.40;;;-3.80;70.60;-4.40;96972.00;;;;4980990;28;88553;-58
2021/12/02 08:44:26;;;;;;;6.30;3.25;;;-3.80;70.40;-4.40;96959.00;;;;4981652;28;87006;-59
2021/12/02 08:46:53;;;;;;;6.65;2.55;;;-3.80;69.70;-4.40;96960.00;;;;4981990;28;86501;-56
2021/12/02 08:49:21;;;;;;;6.93;2.63;;;-3.70;70.80;-4.30;96950.00;;;;4979867;28;87733;-62
2021/12/02 08:51:49;;;;;;;5.10;2.72;;;-3.70;70.10;-4.30;96953.00;;;;4961340;28;87413;-61
2021/12/02 08:54:15;;;;;;;3.65;2.28;;;-3.60;70.00;-4.20;96957.00;;;;4961437;28;88389;-62
2021/12/02 08:56:42;;;;;;;3.90;2.45;;;-3.60;69.80;-4.20;96954.00;;;;4974426;28;87117;-57
2021/12/02 08:59:09;;;;;;;5.20;2.60;;;-3.50;70.30;-4.10;96951.00;;;;4996557;28;87527;-55
2021/12/02 09:01:36;;;;;;;4.72;2.47;;;-3.50;69.70;-4.10;96951.00;;;;4981470;28;87410;-53
2021/12/02 09:04:03;;;;;;;4.90;2.78;;;-3.50;69.20;-4.00;96950.00;;;;4980234;28;87545;-53
2021/12/02 09:06:33;;;;;;;3.67;2.35;;;-3.40;69.70;-4.00;96953.00;;;;4981355;28;87439;-57
2021/12/02 09:09:00;;;;;;;4.32;2.40;;;-3.30;69.90;-3.90;96954.00;;;;4980264;28;87565;-62
2021/12/02 09:11:30;;;;;;;4.13;2.13;;;-3.30;69.40;-3.90;96957.00;;;;4980049;28;87650;-57
2021/12/02 09:14:01;;;;;;;5.80;2.60;;;-3.30;69.40;-3.90;96945.00;;;;4980001;28;87517;-65
2021/12/02 09:16:29;;;;;;;5.60;2.30;;;-3.30;69.70;-3.90;96955.00;;;;4973996;28;87351;-63
2021/12/02 09:19:03;;;;;;;3.58;1.95;;;-3.30;69.10;-3.90;96948.00;;;;4978684;28;89894;-63
2021/12/02 09:21:45;;;;;;;2.78;2.13;;;-3.30;68.90;-3.90;96949.00;;;;4966979;28;89298;-64
2021/12/02 09:24:18;;;;;;;4.00;2.42;;;-3.30;69.00;-3.90;96957.00;;;;4992982;28;87516;-64
2021/12/02 09:26:47;;;;;;;4.47;2.22;;;-3.20;68.90;-3.80;96958.00;;;;4979270;28;86973;-64
2021/12/02 09:29:19;;;;;;;3.40;2.30;;;-3.20;69.20;-3.80;96964.00;;;;4964208;28;87584;-63
2021/12/02 09:31:47;;;;;;;4.47;2.50;;;-3.20;68.80;-3.80;96945.00;;;;4960978;28;87574;-63
2021/12/02 09:34:15;;;;;;;6.00;2.70;;;-3.20;69.00;-3.80;96941.00;;;;4959728;28;86979;-56
2021/12/02 09:36:43;;;;;;;5.82;2.15;;;-3.20;68.90;-3.80;96934.00;;;;4967456;28;86586;-57
2021/12/02 09:39:11;;;;;;;4.60;2.00;;;-3.20;68.80;-3.80;96927.00;;;;4978774;28;89250;-54
2021/12/02 09:41:37;;;;;;;9.15;2.42;;;-3.20;68.90;-3.70;96927.00;;;;4980657;28;87194;-56
2021/12/02 09:44:04;;;;;;;3.17;2.30;;;-3.20;68.80;-3.70;96921.00;;;;4995630;28;88524;-55
2021/12/02 09:46:32;;;;;;;4.28;2.65;;;-3.10;68.80;-3.70;96926.00;;;;4980635;28;86999;-59
2021/12/02 09:49:02;;;;;;;4.93;2.20;;;-3.20;68.80;-3.70;96921.00;;;;4978857;28;88123;-60
2021/12/02 09:51:33;;;;;;;5.15;2.40;;;-3.10;68.90;-3.70;96924.00;;;;4976831;28;88699;-59
2021/12/02 09:54:13;;;;;;;4.67;2.67;;;-3.10;68.90;-3.70;96922.00;;;;4968892;28;87251;-58
2021/12/02 09:56:41;;;;;;;4.03;2.63;;;-3.10;68.90;-3.70;96916.00;;;;4967933;28;86945;-62
2021/12/02 09:59:22;;;;;;;3.47;2.15;;;-3.10;68.90;-3.70;96913.00;;;;4959349;28;87657;-60
2021/12/02 10:01:52;;;;;;;4.20;2.33;;;-3.10;68.90;-3.70;96900.00;;;;4960207;28;87481;-60
2021/12/02 10:04:21;;;;;;;3.88;2.40;;;-3.10;68.90;-3.60;96910.00;;;;4960370;28;86915;-59
2021/12/02 10:06:48;;;;;;;5.57;2.47;;;-3.10;68.90;-3.60;96906.00;;;;4960048;28;87400;-57
2021/12/02 10:09:37;;;;;;;4.38;2.20;;;-3.10;69.30;-3.60;96902.00;;;;4974490;28;91237;-56
2021/12/02 10:12:28;;;;;;;3.70;2.38;;;-3.10;68.80;-3.70;96902.00;;;;4960455;28;87327;-55
2021/12/02 10:14:57;;;;;;;4.65;2.63;;;-3.10;68.90;-3.70;96903.00;;;;4960122;28;87274;-57
2021/12/02 10:17:41;;;;;;;3.72;2.53;;;-3.10;69.30;-3.70;96895.00;;;;4980090;28;87215;-57
2021/12/02 10:20:23;;;;;;;4.45;2.85;;;-3.10;69.20;-3.70;96900.00;;;;4979737;28;87597;-56
2021/12/02 10:23:26;;;;;;;4.93;2.10;;;-3.10;69.00;-3.70;96898.00;;;;4978133;28;88550;-64
2021/12/02 10:26:00;;;;;;;2.53;2.03;;;-3.10;69.20;-3.70;96899.00;;;;4980015;28;87460;-64
2021/12/02 10:28:42;;;;;;;3.53;2.58;;;-3.10;68.90;-3.70;96896.00;;;;4980336;28;86584;-63
2021/12/02 10:31:09;;;;;;;;;;;-3.10;68.60;-3.60;96899.00;;;;4979419;28;87668;-64
2021/12/02 10:33:46;;;;;;;4.72;2.90;;;-3.00;68.70;-3.60;96893.00;;;;4980171;28;87207;-63
2021/12/02 10:36:40;;;;;;;4.93;2.47;;;-3.10;68.90;-3.60;96904.00;;;;4979625;28;87919;-64
2021/12/02 10:39:21;;;;;;;5.20;2.38;;;-3.00;69.00;-3.60;96888.00;;;;4979754;28;87024;-63
2021/12/02 10:42:05;;;;;;;4.40;3.03;;;-3.00;69.70;-3.50;96887.00;;;;4994384;28;87804;-61
2021/12/02 10:44:35;;;;;;;3.55;2.42;;;-3.00;69.00;-3.50;96889.00;;;;4978752;28;88289;-62
2021/12/02 10:47:08;;;;;;;3.88;2.50;;;-3.00;69.00;-3.50;96875.00;;;;4977991;28;87376;-63
2021/12/02 10:49:45;;;;;;;4.05;2.75;;;-3.00;68.90;-3.50;96878.00;;;;4976510;28;87216;-62
2021/12/02 10:52:22;;;;;;;3.03;2.33;;;-2.90;68.60;-3.50;96876.00;;;;4959717;28;88599;-62
2021/12/02 10:55:16;;;;;;;3.53;2.15;;;-2.90;68.60;-3.50;96881.00;;;;4959993;28;88443;-63
2021/12/02 10:57:55;;;;;;;5.68;3.05;;;-2.90;68.10;-3.50;96876.00;;;;4959636;28;86978;-60
2021/12/02 11:00:25;;;;;;;4.60;2.83;;;-2.90;68.20;-3.50;96875.00;;;;4959927;28;87454;-61
2021/12/02 11:02:55;;;;;;;3.75;2.58;;;-2.90;68.70;-3.40;96877.00;;;;4958816;28;88219;-61
2021/12/02 11:05:32;;;;;;;5.60;2.38;;;-2.90;68.50;-3.50;96871.00;;;;4959410;28;88289;-61
2021/12/02 11:08:06;;;;;;;4.90;3.20;;;-2.90;68.10;-3.50;96868.00;;;;4959274;28;86935;-61
2021/12/02 11:10:42;;;;;;;4.20;2.90;;;-2.90;68.20;-3.50;96868.00;;;;4959596;28;87136;-62
2021/12/02 11:13:11;;;;;;;4.30;3.00;;;-2.90;67.80;-3.40;96870.00;;;;4959884;28;87901;-61
2021/12/02 11:15:39;;;;;;;4.97;3.25;;;-2.90;68.60;-3.40;96871.00;;;;4966241;28;87431;-61
2021/12/02 11:18:12;;;;;;;4.10;2.83;;;-2.80;68.30;-3.40;96859.00;;;;4959565;28;86917;-61
2021/12/02 11:20:43;;;;;;;4.40;3.20;;;-2.90;68.00;-3.40;96856.00;;;;4959920;28;86644;-62
2021/12/02 11:23:21;;;;;;;4.80;3.20;;;-2.80;68.60;-3.40;96850.00;;;;4962616;28;87766;-62
2021/12/02 11:26:11;;;;;;;5.57;3.50;;;-2.90;68.50;-3.40;96843.00;;;;4979252;28;87529;-62
2021/12/02 11:28:43;;;;;;;3.63;2.80;;;-2.80;69.00;-3.40;96839.00;;;;4978884;28;88180;-61